createdAt,value
2022-08-12T00:01:12.383Z,24.30
2022-08-12T00:03:58.361Z,24.20
2022-08-12T00:06:46.320Z,24.20
2022-08-12T00:09:32.493Z,24.20
2022-08-12T00:12:18.621Z,24.20
2022-08-12T00:15:04.504Z,24.20
2022-08-12T00:17:50.425Z,24.20
2022-08-12T00:20:36.401Z,24.30
2022-08-12T00:23:24.061Z,24.30
2022-08-12T00:26:23.343Z,24.30
2022-08-12T00:29:13.002Z,24.30
2022-08-12T00:32:01.854Z,24.20
2022-08-12T00:34:50.100Z,24.20
2022-08-12T00:37:39.831Z,24.30
2022-08-12T00:40:31.180Z,24.10
2022-08-12T00:43:00.798Z,24.10
2022-08-12T00:45:48.521Z,24.10
2022-08-12T00:48:17.277Z,24.00
2022-08-12T00:50:47.610Z,24.10
2022-08-12T00:53:17.037Z,24.00
2022-08-12T00:55:48.231Z,23.90
2022-08-12T00:58:23.833Z,23.90
2022-08-12T01:00:52.374Z,23.90
2022-08-12T01:03:20.852Z,23.80
2022-08-12T01:06:10.279Z,23.80
2022-08-12T01:08:56.419Z,23.70
2022-08-12T01:11:30.533Z,23.60
2022-08-12T01:14:00.796Z,23.60
2022-08-12T01:16:29.439Z,23.50
2022-08-12T01:19:00.522Z,23.50
2022-08-12T01:21:27.798Z,23.50
2022-08-12T01:24:30.159Z,23.50
2022-08-12T01:27:03.422Z,23.40
2022-08-12T01:29:44.124Z,23.40
2022-08-12T01:32:14.508Z,23.40
2022-08-12T01:34:48.123Z,23.30
2022-08-12T01:37:19.033Z,23.30
2022-08-12T01:40:35.055Z,23.40
2022-08-12T01:42:45.376Z,23.30
2022-08-12T01:45:14.026Z,23.20
2022-08-12T01:48:05.820Z,23.20
2022-08-12T01:50:36.989Z,23.20
2022-08-12T01:53:11.432Z,23.20
2022-08-12T01:55:42.723Z,23.20
2022-08-12T01:58:53.377Z,23.20
2022-08-12T02:01:25.161Z,23.30
2022-08-12T02:04:42.412Z,23.20
2022-08-12T02:08:02.738Z,23.20
2022-08-12T02:11:16.645Z,23.30
2022-08-12T02:14:02.587Z,23.20
2022-08-12T02:16:41.861Z,23.10
2022-08-12T02:19:48.851Z,23.10
2022-08-12T02:22:31.320Z,23.10
2022-08-12T02:25:04.811Z,23.10
2022-08-12T02:27:40.084Z,23.10
2022-08-12T02:30:11.322Z,23.00
2022-08-12T02:32:42.065Z,23.00
2022-08-12T02:35:11.548Z,23.00
2022-08-12T02:37:40.949Z,23.00
2022-08-12T02:40:11.986Z,23.00
2022-08-12T02:42:47.255Z,22.90
2022-08-12T02:45:19.572Z,22.90
2022-08-12T02:47:58.750Z,22.90
2022-08-12T02:50:31.863Z,22.80
2022-08-12T02:53:00.566Z,22.80
2022-08-12T02:55:34.268Z,22.70
2022-08-12T02:58:09.092Z,22.70
2022-08-12T03:00:41.456Z,22.60
2022-08-12T03:03:11.827Z,22.70
2022-08-12T03:05:46.864Z,22.60
2022-08-12T03:08:31.335Z,22.60
2022-08-12T03:11:06.273Z,22.60
2022-08-12T03:13:47.419Z,22.60
2022-08-12T03:16:15.179Z,22.70
2022-08-12T03:18:46.068Z,22.60
2022-08-12T03:21:17.444Z,22.60
2022-08-12T03:24:06.748Z,22.50
2022-08-12T03:26:37.117Z,22.50
2022-08-12T03:29:06.948Z,22.50
2022-08-12T03:31:34.449Z,22.50
2022-08-12T03:34:07.515Z,22.60
2022-08-12T03:36:36.797Z,22.60
2022-08-12T03:39:35.582Z,22.60
2022-08-12T03:42:28.375Z,22.60
2022-08-12T03:45:51.657Z,22.60
2022-08-12T03:48:40.510Z,22.60
2022-08-12T03:51:27.888Z,22.40
2022-08-12T03:54:14.324Z,22.50
2022-08-12T03:57:00.997Z,22.20
2022-08-12T03:59:46.885Z,22.20
2022-08-12T04:02:15.659Z,22.20
2022-08-12T04:04:45.651Z,22.20
2022-08-12T04:07:14.284Z,22.10
2022-08-12T04:09:44.310Z,22.10
2022-08-12T04:12:32.754Z,22.10
2022-08-12T04:15:01.401Z,22.10
2022-08-12T04:17:29.067Z,22.20
2022-08-12T04:19:58.010Z,22.20
2022-08-12T04:22:30.949Z,22.20
2022-08-12T04:25:03.103Z,22.30
2022-08-12T04:27:32.058Z,22.20
2022-08-12T04:30:30.252Z,22.10
2022-08-12T04:32:55.892Z,22.10
2022-08-12T04:35:23.235Z,22.00
2022-08-12T04:38:00.629Z,22.00
2022-08-12T04:40:31.015Z,21.90
2022-08-12T04:43:01.374Z,21.90
2022-08-12T04:45:30.568Z,21.80
2022-08-12T04:47:57.842Z,21.80
2022-08-12T04:50:27.262Z,21.80
2022-08-12T04:53:06.317Z,21.80
2022-08-12T04:55:34.859Z,21.70
2022-08-12T04:58:02.140Z,21.80
2022-08-12T05:00:29.454Z,21.80
2022-08-12T05:02:56.872Z,21.80
2022-08-12T05:05:24.961Z,21.90
2022-08-12T05:07:54.278Z,21.90
2022-08-12T05:10:33.895Z,21.90
2022-08-12T05:13:14.405Z,21.80
2022-08-12T05:15:53.041Z,21.80
2022-08-12T05:18:38.387Z,21.70
2022-08-12T05:21:08.057Z,21.80
2022-08-12T05:23:37.960Z,21.80
2022-08-12T05:26:06.396Z,21.70
2022-08-12T05:28:35.216Z,21.70
2022-08-12T05:31:03.723Z,21.70
2022-08-12T05:33:40.234Z,21.70
2022-08-12T05:36:10.256Z,21.80
2022-08-12T05:38:56.196Z,21.80
2022-08-12T05:41:32.341Z,21.80
2022-08-12T05:44:02.817Z,21.90
2022-08-12T05:46:32.349Z,21.90
2022-08-12T05:49:03.224Z,22.00
2022-08-12T05:51:40.281Z,22.00
2022-08-12T05:54:10.839Z,22.10
2022-08-12T05:56:38.522Z,22.10
2022-08-12T05:59:07.760Z,22.10
2022-08-12T06:02:10.287Z,22.20
2022-08-12T06:04:23.137Z,22.20
2022-08-12T06:06:53.591Z,22.30
2022-08-12T06:09:22.926Z,22.30
2022-08-12T06:11:59.913Z,22.30
2022-08-12T06:14:37.208Z,22.40
2022-08-12T06:17:09.289Z,22.40
2022-08-12T06:20:26.279Z,22.50
2022-08-12T06:22:26.384Z,22.60
2022-08-12T06:24:53.613Z,23.10
2022-08-12T06:27:21.675Z,24.20
2022-08-12T06:30:09.013Z,25.40
2022-08-12T06:32:42.728Z,26.40
2022-08-12T06:35:27.335Z,27.20
2022-08-12T06:38:21.404Z,28.00
2022-08-12T06:41:10.920Z,29.00
2022-08-12T06:44:04.568Z,29.80
2022-08-12T06:46:28.677Z,30.40
2022-08-12T06:48:59.429Z,30.90
2022-08-12T06:51:31.136Z,31.30
2022-08-12T06:54:00.985Z,31.80
2022-08-12T06:56:59.696Z,32.00
2022-08-12T06:59:16.706Z,32.10
2022-08-12T07:01:49.657Z,32.30
2022-08-12T07:07:09.218Z,32.60
2022-08-12T07:10:04.758Z,32.50
2022-08-12T07:12:27.786Z,32.40
2022-08-12T07:15:02.085Z,32.50
2022-08-12T07:17:38.295Z,32.60
2022-08-12T07:20:10.252Z,32.70
2022-08-12T07:22:49.811Z,32.60
2022-08-12T07:25:37.702Z,32.40
2022-08-12T07:28:23.629Z,32.10
2022-08-12T07:30:56.861Z,31.70
2022-08-12T07:33:29.285Z,31.20
2022-08-12T07:36:02.336Z,30.90
2022-08-12T07:38:35.062Z,30.60
2022-08-12T07:41:18.528Z,30.50
2022-08-12T07:43:51.715Z,30.30
2022-08-12T07:46:21.775Z,30.00
2022-08-12T07:48:52.513Z,30.00
2022-08-12T07:51:25.397Z,29.80
2022-08-12T07:54:00.770Z,29.80
2022-08-12T07:56:34.950Z,29.70
2022-08-12T07:59:03.323Z,29.60
2022-08-12T08:01:32.926Z,29.60
2022-08-12T08:04:19.749Z,29.70
2022-08-12T08:06:48.660Z,29.80
2022-08-12T08:09:19.039Z,29.80
2022-08-12T08:12:05.065Z,29.80
2022-08-12T08:14:32.713Z,29.80
2022-08-12T08:17:03.567Z,29.80
2022-08-12T08:20:03.016Z,29.90
2022-08-12T08:22:33.492Z,29.90
2022-08-12T08:25:34.994Z,29.90
2022-08-12T08:27:56.103Z,30.00
2022-08-12T08:30:24.074Z,30.00
2022-08-12T08:32:51.388Z,30.10
2022-08-12T08:35:23.347Z,30.20
2022-08-12T08:38:06.363Z,30.30
2022-08-12T08:40:55.294Z,30.50
2022-08-12T08:43:44.697Z,30.60
2022-08-12T08:46:16.389Z,30.60
2022-08-12T08:48:44.288Z,30.80
2022-08-12T08:53:53.751Z,31.10
2022-08-12T08:56:22.263Z,31.10
2022-08-12T08:58:49.979Z,31.20
2022-08-12T09:01:25.485Z,31.20
2022-08-12T09:05:10.074Z,31.30
2022-08-12T09:06:53.482Z,31.40
2022-08-12T09:09:21.690Z,31.40
2022-08-12T09:12:11.486Z,31.40
2022-08-12T09:14:46.831Z,31.30
2022-08-12T09:17:21.236Z,31.30
2022-08-12T09:19:56.892Z,31.20
2022-08-12T09:22:28.576Z,31.20
2022-08-12T09:25:00.010Z,31.20
2022-08-12T09:28:03.923Z,31.10
2022-08-12T09:30:18.076Z,31.10
2022-08-12T09:33:14.910Z,31.00
2022-08-12T09:36:04.398Z,31.00
2022-08-12T09:38:37.214Z,31.10
2022-08-12T09:42:09.353Z,31.10
2022-08-12T09:44:16.959Z,31.10
2022-08-12T09:46:58.839Z,31.10
2022-08-12T09:49:27.622Z,31.10
2022-08-12T09:51:55.626Z,31.10
2022-08-12T09:54:33.123Z,31.20
2022-08-12T09:58:45.514Z,31.20
2022-08-12T10:00:27.464Z,31.30
2022-08-12T10:03:06.029Z,31.30
2022-08-12T10:06:27.005Z,31.40
2022-08-12T10:08:28.031Z,31.40
2022-08-12T10:11:18.473Z,31.40
2022-08-12T10:13:50.457Z,31.40
2022-08-12T10:16:30.973Z,31.40
2022-08-12T10:19:03.860Z,31.30
2022-08-12T10:21:39.780Z,31.40
2022-08-12T10:24:12.701Z,31.50
2022-08-12T10:27:05.808Z,31.60
2022-08-12T10:30:38.784Z,31.70
2022-08-12T10:32:44.285Z,31.80
2022-08-12T10:35:15.640Z,31.90
2022-08-12T10:38:34.720Z,32.00
2022-08-12T10:40:37.540Z,32.00
2022-08-12T10:43:23.669Z,32.10
2022-08-12T10:45:51.869Z,32.10
2022-08-12T10:48:27.048Z,32.30
2022-08-12T10:52:03.752Z,32.30
2022-08-12T10:54:00.344Z,32.50
2022-08-12T10:56:34.497Z,32.60
2022-08-12T10:59:10.499Z,32.60
2022-08-12T11:04:18.084Z,32.70
2022-08-12T11:04:43.701Z,32.80
2022-08-12T11:08:34.386Z,32.80
2022-08-12T11:10:05.310Z,32.80
2022-08-12T11:12:55.829Z,32.90
2022-08-12T11:15:33.377Z,32.90
2022-08-12T11:18:18.770Z,33.00
2022-08-12T11:20:48.109Z,32.90
2022-08-12T11:23:25.018Z,32.90
2022-08-12T11:26:06.212Z,32.90
2022-08-12T11:28:37.474Z,32.90
2022-08-12T11:31:09.763Z,32.90
2022-08-12T11:34:06.518Z,33.00
2022-08-12T11:36:28.536Z,33.00
2022-08-12T11:38:56.133Z,33.10
2022-08-12T11:41:30.861Z,33.10
2022-08-12T11:43:59.098Z,33.20
2022-08-12T11:46:26.417Z,33.20
2022-08-12T11:48:53.731Z,33.20
2022-08-12T11:51:22.163Z,33.30
2022-08-12T11:53:57.119Z,33.50
2022-08-12T11:56:38.454Z,33.60
2022-08-12T12:02:01.568Z,33.70
2022-08-12T12:04:32.612Z,33.60
2022-08-12T12:07:07.398Z,33.60
2022-08-12T12:09:52.620Z,33.60
2022-08-12T12:12:23.407Z,33.60
2022-08-12T12:14:54.907Z,33.60
2022-08-12T12:17:38.166Z,33.70
2022-08-12T12:20:09.603Z,33.70
2022-08-12T12:22:40.865Z,33.70
2022-08-12T12:25:12.969Z,33.60
2022-08-12T12:28:05.940Z,33.50
2022-08-12T12:30:37.424Z,33.50
2022-08-12T12:33:06.299Z,33.60
2022-08-12T12:36:18.558Z,33.50
2022-08-12T12:38:25.305Z,33.50
2022-08-12T12:40:53.405Z,33.50
2022-08-12T12:43:29.043Z,33.50
2022-08-12T12:46:09.448Z,33.40
2022-08-12T12:48:36.781Z,33.40
2022-08-12T12:51:22.132Z,33.50
2022-08-12T12:54:08.035Z,33.50
2022-08-12T12:56:40.560Z,33.60
2022-08-12T12:59:54.972Z,33.60
2022-08-12T13:01:56.883Z,33.50
2022-08-12T13:04:24.662Z,33.40
2022-08-12T13:06:52.389Z,33.40
2022-08-12T13:09:22.174Z,33.30
2022-08-12T13:11:53.438Z,33.40
2022-08-12T13:14:28.845Z,33.40
2022-08-12T13:16:57.452Z,33.40
2022-08-12T13:19:38.629Z,33.40
2022-08-12T13:22:19.560Z,33.50
2022-08-12T13:24:56.564Z,33.40
2022-08-12T13:27:41.522Z,33.40
2022-08-12T13:30:17.576Z,33.40
2022-08-12T13:32:56.913Z,33.40
2022-08-12T13:36:02.758Z,33.30
2022-08-12T13:38:13.537Z,33.30
2022-08-12T13:40:41.046Z,33.30
2022-08-12T13:43:08.486Z,33.20
2022-08-12T13:45:41.065Z,33.30
2022-08-12T13:48:08.765Z,33.10
2022-08-12T13:50:40.882Z,33.10
2022-08-12T13:53:24.420Z,33.20
2022-08-12T13:56:01.592Z,33.20
2022-08-12T13:58:32.803Z,33.20
2022-08-12T14:01:04.723Z,33.20
2022-08-12T14:03:50.152Z,33.30
2022-08-12T14:06:19.810Z,33.20
2022-08-12T14:08:49.598Z,33.30
2022-08-12T14:11:25.471Z,33.30
2022-08-12T14:14:06.293Z,33.30
2022-08-12T14:16:48.941Z,33.30
2022-08-12T14:19:23.085Z,33.20
2022-08-12T14:21:59.564Z,33.20
2022-08-12T14:24:35.068Z,33.20
2022-08-12T14:27:09.257Z,33.30
2022-08-12T14:30:04.334Z,33.20
2022-08-12T14:32:36.182Z,33.10
2022-08-12T14:35:09.680Z,33.10
2022-08-12T14:37:56.816Z,33.00
2022-08-12T14:40:30.192Z,33.00
2022-08-12T14:43:02.274Z,33.00
2022-08-12T14:45:44.958Z,32.90
2022-08-12T14:48:18.834Z,32.90
2022-08-12T14:51:09.464Z,32.90
2022-08-12T14:55:28.420Z,32.90
2022-08-12T14:59:56.408Z,33.00
2022-08-12T15:02:21.019Z,33.00
2022-08-12T15:04:55.926Z,32.90
2022-08-12T15:07:43.605Z,33.00
2022-08-12T15:10:10.878Z,33.00
2022-08-12T15:12:40.618Z,32.90
2022-08-12T15:15:10.318Z,32.90
2022-08-12T15:17:38.786Z,32.90
2022-08-12T15:20:32.275Z,32.90
2022-08-12T15:22:57.980Z,32.90
2022-08-12T15:25:29.415Z,32.80
2022-08-12T15:28:20.679Z,32.70
2022-08-12T15:30:52.242Z,32.70
2022-08-12T15:33:24.134Z,32.70
2022-08-12T15:35:53.863Z,32.70
2022-08-12T15:38:25.304Z,32.70
2022-08-12T15:40:54.778Z,32.70
2022-08-12T15:43:51.458Z,32.60
2022-08-12T15:46:15.770Z,32.50
2022-08-12T15:48:46.739Z,32.50
2022-08-12T15:51:59.119Z,32.50
2022-08-12T15:54:34.369Z,32.40
2022-08-12T15:57:10.301Z,32.50
2022-08-12T16:00:00.131Z,32.30
2022-08-12T16:02:30.838Z,32.20
2022-08-12T16:04:58.571Z,32.20
2022-08-12T16:07:31.910Z,32.20
2022-08-12T16:10:09.172Z,32.10
2022-08-12T16:12:55.001Z,32.00
2022-08-12T16:15:29.501Z,32.00
2022-08-12T16:18:19.983Z,32.00
2022-08-12T16:20:48.139Z,31.90
2022-08-12T16:23:36.184Z,32.00
2022-08-12T16:26:14.628Z,32.00
2022-08-12T16:28:47.585Z,32.00
2022-08-12T16:31:23.471Z,31.90
2022-08-12T16:33:59.982Z,31.80
2022-08-12T16:36:29.999Z,31.80
2022-08-12T16:39:01.572Z,31.70
2022-08-12T16:41:37.807Z,31.70
2022-08-12T16:44:07.148Z,31.60
2022-08-12T16:46:36.562Z,31.50
2022-08-12T16:49:13.426Z,31.50
2022-08-12T16:51:46.685Z,31.40
2022-08-12T16:54:17.138Z,31.30
2022-08-12T16:56:55.250Z,31.30
2022-08-12T16:59:52.860Z,31.10
2022-08-12T17:02:31.530Z,31.10
2022-08-12T17:05:05.345Z,31.10
2022-08-12T17:07:43.446Z,31.10
2022-08-12T17:10:18.540Z,31.00
2022-08-12T17:13:10.151Z,31.00
2022-08-12T17:15:57.634Z,31.00
2022-08-12T17:18:44.256Z,31.00
2022-08-12T17:21:19.785Z,31.00
2022-08-12T17:23:53.749Z,31.00
2022-08-12T17:26:31.146Z,30.90
2022-08-12T17:29:00.114Z,31.00
2022-08-12T17:32:00.628Z,30.80
2022-08-12T17:34:36.123Z,30.70
2022-08-12T17:37:06.432Z,30.70
2022-08-12T17:40:12.501Z,30.60
2022-08-12T17:42:32.263Z,30.70
2022-08-12T17:45:18.550Z,30.60
2022-08-12T17:48:02.253Z,30.60
2022-08-12T17:50:38.793Z,30.60
2022-08-12T17:53:08.007Z,30.60
2022-08-12T17:55:47.469Z,30.50
2022-08-12T17:58:35.517Z,30.50
2022-08-12T18:01:11.251Z,30.50
2022-08-12T18:04:05.770Z,30.50
2022-08-12T18:06:28.624Z,30.40
2022-08-12T18:08:59.391Z,30.40
2022-08-12T18:12:06.247Z,30.30
2022-08-12T18:14:37.280Z,30.30
2022-08-12T18:17:08.264Z,30.30
2022-08-12T18:20:05.338Z,30.20
2022-08-12T18:22:30.309Z,30.20
2022-08-12T18:25:05.340Z,30.30
2022-08-12T18:27:44.181Z,30.20
2022-08-12T18:30:20.875Z,30.20
2022-08-12T18:33:04.951Z,30.10
2022-08-12T18:35:47.519Z,30.10
2022-08-12T18:38:25.247Z,30.00
2022-08-12T18:41:21.569Z,30.00
2022-08-12T18:44:00.966Z,29.90
2022-08-12T18:46:37.846Z,29.90
2022-08-12T18:49:17.968Z,29.80
2022-08-12T18:52:07.738Z,29.70
2022-08-12T18:54:49.750Z,29.70
2022-08-12T18:58:06.048Z,29.60
2022-08-12T19:00:21.427Z,29.50
2022-08-12T19:02:53.296Z,29.40
2022-08-12T19:05:54.252Z,29.40
2022-08-12T19:08:14.133Z,29.30
2022-08-12T19:10:50.000Z,29.20
2022-08-12T19:13:37.088Z,29.20
2022-08-12T19:16:10.884Z,29.10
2022-08-12T19:18:44.923Z,29.10
2022-08-12T19:21:16.745Z,29.00
2022-08-12T19:24:07.607Z,29.00
2022-08-12T19:26:35.801Z,28.90
2022-08-12T19:29:05.214Z,28.90
2022-08-12T19:31:57.960Z,28.90
2022-08-12T19:37:38.484Z,28.80
2022-08-12T19:40:31.972Z,28.70
2022-08-12T19:43:19.940Z,28.50
2022-08-12T19:45:54.061Z,28.50
2022-08-12T19:48:30.660Z,28.40
2022-08-12T19:51:09.322Z,28.30
2022-08-12T19:53:57.587Z,28.20
2022-08-12T19:56:28.093Z,28.20
2022-08-12T19:59:18.735Z,28.20
2022-08-12T20:02:03.408Z,28.10
2022-08-12T20:04:37.588Z,28.00
2022-08-12T20:07:08.086Z,27.90
2022-08-12T20:09:52.612Z,27.80
2022-08-12T20:12:30.923Z,27.70
2022-08-12T20:15:05.163Z,27.70
2022-08-12T20:17:36.460Z,27.70
2022-08-12T20:20:21.224Z,27.60
2022-08-12T20:22:57.678Z,27.50
2022-08-12T20:25:28.230Z,27.50
2022-08-12T20:28:12.974Z,27.40
2022-08-12T20:30:59.357Z,27.40
2022-08-12T20:33:32.790Z,27.40
2022-08-12T20:36:41.331Z,27.30
2022-08-12T20:39:06.022Z,27.30
2022-08-12T20:41:58.689Z,27.20
2022-08-12T20:44:27.890Z,27.20
2022-08-12T20:47:16.683Z,27.20
2022-08-12T20:49:54.927Z,27.20
2022-08-12T20:52:29.253Z,27.20
2022-08-12T20:54:58.143Z,27.20
2022-08-12T20:57:38.363Z,27.10
2022-08-12T21:00:18.196Z,27.10
2022-08-12T21:02:50.405Z,27.10
2022-08-12T21:06:09.853Z,27.00
2022-08-12T21:08:26.581Z,27.00
2022-08-12T21:10:58.841Z,26.90
2022-08-12T21:13:27.027Z,26.90
2022-08-12T21:16:00.054Z,26.80
2022-08-12T21:18:28.947Z,26.80
2022-08-12T21:20:59.274Z,26.80
2022-08-12T21:23:30.543Z,26.80
2022-08-12T21:26:01.371Z,26.70
2022-08-12T21:28:32.027Z,26.60
2022-08-12T21:32:36.232Z,26.50
2022-08-12T21:34:07.521Z,26.40
2022-08-12T21:36:43.065Z,26.30
2022-08-12T21:39:24.010Z,26.30
2022-08-12T21:41:57.244Z,26.20
2022-08-12T21:45:45.570Z,26.10
2022-08-12T21:47:20.888Z,26.10
2022-08-12T21:50:03.136Z,26.10
2022-08-12T21:52:40.835Z,26.10
2022-08-12T21:55:18.911Z,26.10
2022-08-12T21:57:54.589Z,26.10
2022-08-12T22:00:35.249Z,26.10
2022-08-12T22:04:10.920Z,26.00
2022-08-12T22:06:26.257Z,26.10
2022-08-12T22:09:02.807Z,26.10
2022-08-12T22:11:42.368Z,26.10
2022-08-12T22:14:21.571Z,26.10
2022-08-12T22:16:53.603Z,26.00
2022-08-12T22:19:21.501Z,26.00
2022-08-12T22:21:55.801Z,26.00
2022-08-12T22:24:26.731Z,26.00
2022-08-12T22:27:08.174Z,26.00
2022-08-12T22:30:07.201Z,26.00
2022-08-12T22:32:47.499Z,25.90
2022-08-12T22:35:56.663Z,25.90
2022-08-12T22:38:26.724Z,25.80
2022-08-12T22:41:02.137Z,25.80
2022-08-12T22:44:00.385Z,25.80
2022-08-12T22:46:33.104Z,25.80
2022-08-12T22:49:00.746Z,25.70
2022-08-12T22:52:00.161Z,25.70
2022-08-12T22:54:35.219Z,25.70
2022-08-12T22:57:12.115Z,25.70
2022-08-12T22:59:55.594Z,25.70
2022-08-12T23:02:28.868Z,25.60
2022-08-12T23:04:58.101Z,25.60
2022-08-12T23:07:25.384Z,25.60
2022-08-12T23:09:54.765Z,25.60
2022-08-12T23:12:47.012Z,25.50
2022-08-12T23:15:16.420Z,25.50
2022-08-12T23:17:45.889Z,25.40
2022-08-12T23:20:15.200Z,25.40
2022-08-12T23:22:43.884Z,25.40
2022-08-12T23:25:23.429Z,25.40
2022-08-12T23:28:31.053Z,25.40
2022-08-12T23:31:04.265Z,25.40
2022-08-12T23:33:59.811Z,25.30
2022-08-12T23:36:39.402Z,25.30
2022-08-12T23:40:15.430Z,25.20
